sensor_id;sensor_type;location;lat;lon;timestamp;P1;durP1;ratioP1;P2;durP2;ratioP2
70829;SDS011;58451;51.550;7.208;2023-04-01T00:00:59;3.90;;;0.40;;
70829;SDS011;58451;51.550;7.208;2023-04-01T00:02:31;3.90;;;0.50;;
70829;SDS011;58451;51.550;7.208;2023-04-01T00:04:03;4.80;;;0.40;;
70829;SDS011;58451;51.550;7.208;2023-04-01T00:05:36;2.60;;;0.30;;
70829;SDS011;58451;51.550;7.208;2023-04-01T00:07:08;4.60;;;0.40;;
70829;SDS011;58451;51.550;7.208;2023-04-01T00:08:40;6.20;;;0.50;;
70829;SDS011;58451;51.550;7.208;2023-04-01T00:10:14;4.00;;;0.30;;
70829;SDS011;58451;51.550;7.208;2023-04-01T00:11:46;3.70;;;0.30;;
70829;SDS011;58451;51.550;7.208;2023-04-01T00:13:18;1.80;;;0.20;;
70829;SDS011;58451;51.550;7.208;2023-04-01T00:14:51;5.30;;;0.40;;
70829;SDS011;58451;51.550;7.208;2023-04-01T00:16:23;4.80;;;0.40;;
70829;SDS011;58451;51.550;7.208;2023-04-01T00:17:55;4.50;;;0.30;;
70829;SDS011;58451;51.550;7.208;2023-04-01T00:19:27;1.80;;;0.30;;
70829;SDS011;58451;51.550;7.208;2023-04-01T00:20:59;2.30;;;0.30;;
70829;SDS011;58451;51.550;7.208;2023-04-01T00:22:31;4.50;;;0.40;;
70829;SDS011;58451;51.550;7.208;2023-04-01T00:24:03;2.60;;;0.30;;
70829;SDS011;58451;51.550;7.208;2023-04-01T00:25:35;4.10;;;0.50;;
70829;SDS011;58451;51.550;7.208;2023-04-01T00:27:06;3.40;;;0.50;;
70829;SDS011;58451;51.550;7.208;2023-04-01T00:28:39;2.30;;;0.40;;
70829;SDS011;58451;51.550;7.208;2023-04-01T00:30:12;4.60;;;0.30;;
70829;SDS011;58451;51.550;7.208;2023-04-01T00:31:44;3.00;;;0.40;;
70829;SDS011;58451;51.550;7.208;2023-04-01T00:33:16;6.30;;;0.30;;
70829;SDS011;58451;51.550;7.208;2023-04-01T00:34:52;3.20;;;0.40;;
70829;SDS011;58451;51.550;7.208;2023-04-01T00:36:24;4.20;;;0.40;;
70829;SDS011;58451;51.550;7.208;2023-04-01T00:37:56;3.90;;;0.50;;
70829;SDS011;58451;51.550;7.208;2023-04-01T00:39:29;3.20;;;0.40;;
70829;SDS011;58451;51.550;7.208;2023-04-01T00:41:01;2.90;;;0.30;;
70829;SDS011;58451;51.550;7.208;2023-04-01T00:42:33;3.40;;;0.30;;
70829;SDS011;58451;51.550;7.208;2023-04-01T00:44:25;3.10;;;0.20;;
70829;SDS011;58451;51.550;7.208;2023-04-01T00:45:58;3.20;;;0.30;;
70829;SDS011;58451;51.550;7.208;2023-04-01T00:47:30;5.80;;;0.50;;
70829;SDS011;58451;51.550;7.208;2023-04-01T00:49:02;5.90;;;0.50;;
70829;SDS011;58451;51.550;7.208;2023-04-01T00:50:35;5.80;;;0.50;;
70829;SDS011;58451;51.550;7.208;2023-04-01T00:52:11;4.40;;;0.40;;
70829;SDS011;58451;51.550;7.208;2023-04-01T00:53:49;1.20;;;0.20;;
70829;SDS011;58451;51.550;7.208;2023-04-01T00:55:25;4.50;;;0.30;;
70829;SDS011;58451;51.550;7.208;2023-04-01T00:57:09;2.20;;;0.30;;
70829;SDS011;58451;51.550;7.208;2023-04-01T00:58:48;2.10;;;0.30;;
70829;SDS011;58451;51.550;7.208;2023-04-01T01:00:23;2.90;;;0.40;;
70829;SDS011;58451;51.550;7.208;2023-04-01T01:01:55;1.70;;;0.40;;
70829;SDS011;58451;51.550;7.208;2023-04-01T01:08:07;1.80;;;0.20;;
70829;SDS011;58451;51.550;7.208;2023-04-01T01:11:50;1.40;;;0.20;;
70829;SDS011;58451;51.550;7.208;2023-04-01T01:13:36;2.60;;;0.30;;
70829;SDS011;58451;51.550;7.208;2023-04-01T01:15:59;2.90;;;0.20;;
70829;SDS011;58451;51.550;7.208;2023-04-01T01:17:56;1.80;;;0.20;;
70829;SDS011;58451;51.550;7.208;2023-04-01T01:19:47;2.90;;;0.30;;
70829;SDS011;58451;51.550;7.208;2023-04-01T01:25:16;2.70;;;0.50;;
70829;SDS011;58451;51.550;7.208;2023-04-01T01:27:00;3.10;;;0.20;;
70829;SDS011;58451;51.550;7.208;2023-04-01T01:28:59;3.30;;;0.30;;
70829;SDS011;58451;51.550;7.208;2023-04-01T01:35:34;1.40;;;0.20;;
70829;SDS011;58451;51.550;7.208;2023-04-01T01:37:15;2.00;;;0.20;;
70829;SDS011;58451;51.550;7.208;2023-04-01T01:38:50;0.90;;;0.20;;
70829;SDS011;58451;51.550;7.208;2023-04-01T01:40:25;0.80;;;0.20;;
70829;SDS011;58451;51.550;7.208;2023-04-01T01:42:03;1.60;;;0.20;;
70829;SDS011;58451;51.550;7.208;2023-04-01T01:43:43;3.80;;;0.30;;
70829;SDS011;58451;51.550;7.208;2023-04-01T01:45:21;2.30;;;0.20;;
70829;SDS011;58451;51.550;7.208;2023-04-01T01:46:57;1.50;;;0.20;;
70829;SDS011;58451;51.550;7.208;2023-04-01T01:48:30;1.60;;;0.10;;
70829;SDS011;58451;51.550;7.208;2023-04-01T01:50:04;1.30;;;0.20;;
70829;SDS011;58451;51.550;7.208;2023-04-01T01:51:37;1.80;;;0.20;;
70829;SDS011;58451;51.550;7.208;2023-04-01T01:53:12;3.00;;;0.20;;
70829;SDS011;58451;51.550;7.208;2023-04-01T01:54:53;2.70;;;0.20;;
70829;SDS011;58451;51.550;7.208;2023-04-01T01:56:29;1.00;;;0.20;;
70829;SDS011;58451;51.550;7.208;2023-04-01T01:58:20;2.90;;;0.40;;
70829;SDS011;58451;51.550;7.208;2023-04-01T02:00:09;1.30;;;0.10;;
70829;SDS011;58451;51.550;7.208;2023-04-01T02:01:50;2.60;;;0.30;;
70829;SDS011;58451;51.550;7.208;2023-04-01T02:03:27;1.80;;;0.20;;
70829;SDS011;58451;51.550;7.208;2023-04-01T02:05:04;0.90;;;0.20;;
70829;SDS011;58451;51.550;7.208;2023-04-01T02:06:41;2.80;;;0.20;;
70829;SDS011;58451;51.550;7.208;2023-04-01T02:10:02;1.20;;;0.20;;
70829;SDS011;58451;51.550;7.208;2023-04-01T02:13:20;2.40;;;0.20;;
70829;SDS011;58451;51.550;7.208;2023-04-01T02:15:05;0.40;;;0.10;;
70829;SDS011;58451;51.550;7.208;2023-04-01T02:16:53;2.50;;;0.20;;
70829;SDS011;58451;51.550;7.208;2023-04-01T02:18:29;2.20;;;0.20;;
70829;SDS011;58451;51.550;7.208;2023-04-01T02:20:10;1.20;;;0.20;;
70829;SDS011;58451;51.550;7.208;2023-04-01T02:21:57;2.10;;;0.20;;
70829;SDS011;58451;51.550;7.208;2023-04-01T02:23:37;3.00;;;0.20;;
70829;SDS011;58451;51.550;7.208;2023-04-01T02:25:12;2.90;;;0.20;;
70829;SDS011;58451;51.550;7.208;2023-04-01T02:26:50;2.10;;;0.20;;
70829;SDS011;58451;51.550;7.208;2023-04-01T02:28:23;1.00;;;0.30;;
70829;SDS011;58451;51.550;7.208;2023-04-01T02:29:56;1.90;;;0.30;;
70829;SDS011;58451;51.550;7.208;2023-04-01T02:31:29;1.10;;;0.10;;
70829;SDS011;58451;51.550;7.208;2023-04-01T02:33:03;1.90;;;0.20;;
70829;SDS011;58451;51.550;7.208;2023-04-01T02:34:37;2.20;;;0.20;;
70829;SDS011;58451;51.550;7.208;2023-04-01T02:36:13;0.90;;;0.10;;
70829;SDS011;58451;51.550;7.208;2023-04-01T02:37:49;1.50;;;0.20;;
70829;SDS011;58451;51.550;7.208;2023-04-01T02:39:23;3.20;;;0.30;;
70829;SDS011;58451;51.550;7.208;2023-04-01T02:40:59;2.60;;;0.20;;
70829;SDS011;58451;51.550;7.208;2023-04-01T02:42:32;2.70;;;0.30;;
70829;SDS011;58451;51.550;7.208;2023-04-01T02:44:05;1.60;;;0.50;;
70829;SDS011;58451;51.550;7.208;2023-04-01T02:45:37;2.90;;;0.30;;
70829;SDS011;58451;51.550;7.208;2023-04-01T02:47:09;1.80;;;0.20;;
70829;SDS011;58451;51.550;7.208;2023-04-01T02:48:41;2.20;;;0.20;;
70829;SDS011;58451;51.550;7.208;2023-04-01T02:50:13;0.60;;;0.10;;
70829;SDS011;58451;51.550;7.208;2023-04-01T02:51:44;1.60;;;0.40;;
70829;SDS011;58451;51.550;7.208;2023-04-01T02:53:17;2.80;;;0.30;;
70829;SDS011;58451;51.550;7.208;2023-04-01T02:54:48;0.80;;;0.10;;
70829;SDS011;58451;51.550;7.208;2023-04-01T02:56:20;2.40;;;0.20;;
70829;SDS011;58451;51.550;7.208;2023-04-01T02:57:52;1.10;;;0.20;;
70829;SDS011;58451;51.550;7.208;2023-04-01T02:59:24;1.60;;;0.20;;
70829;SDS011;58451;51.550;7.208;2023-04-01T03:00:56;1.10;;;0.20;;
70829;SDS011;58451;51.550;7.208;2023-04-01T03:02:28;1.80;;;0.20;;
70829;SDS011;58451;51.550;7.208;2023-04-01T03:04:00;3.30;;;0.20;;
70829;SDS011;58451;51.550;7.208;2023-04-01T03:05:31;1.50;;;0.20;;
70829;SDS011;58451;51.550;7.208;2023-04-01T03:07:04;3.10;;;0.20;;
70829;SDS011;58451;51.550;7.208;2023-04-01T03:08:36;0.80;;;0.20;;
70829;SDS011;58451;51.550;7.208;2023-04-01T03:10:08;1.30;;;0.10;;
70829;SDS011;58451;51.550;7.208;2023-04-01T03:11:40;1.00;;;0.20;;
70829;SDS011;58451;51.550;7.208;2023-04-01T03:13:12;2.50;;;0.20;;
70829;SDS011;58451;51.550;7.208;2023-04-01T03:14:44;0.80;;;0.20;;
70829;SDS011;58451;51.550;7.208;2023-04-01T03:16:16;1.90;;;0.10;;
70829;SDS011;58451;51.550;7.208;2023-04-01T03:17:47;2.20;;;0.20;;
70829;SDS011;58451;51.550;7.208;2023-04-01T03:19:19;1.00;;;0.20;;
70829;SDS011;58451;51.550;7.208;2023-04-01T03:20:52;0.80;;;0.20;;
70829;SDS011;58451;51.550;7.208;2023-04-01T03:22:23;2.50;;;0.30;;
70829;SDS011;58451;51.550;7.208;2023-04-01T03:23:55;4.60;;;0.30;;
70829;SDS011;58451;51.550;7.208;2023-04-01T03:25:27;2.50;;;0.30;;
70829;SDS011;58451;51.550;7.208;2023-04-01T03:27:00;0.60;;;0.20;;
70829;SDS011;58451;51.550;7.208;2023-04-01T03:28:32;1.30;;;0.20;;
70829;SDS011;58451;51.550;7.208;2023-04-01T03:30:04;1.30;;;0.20;;
70829;SDS011;58451;51.550;7.208;2023-04-01T03:31:38;1.40;;;0.20;;
70829;SDS011;58451;51.550;7.208;2023-04-01T03:33:10;1.80;;;0.10;;
70829;SDS011;58451;51.550;7.208;2023-04-01T03:34:42;2.00;;;0.10;;
70829;SDS011;58451;51.550;7.208;2023-04-01T03:36:14;0.80;;;0.10;;
70829;SDS011;58451;51.550;7.208;2023-04-01T03:37:46;1.20;;;0.20;;
70829;SDS011;58451;51.550;7.208;2023-04-01T03:39:18;1.40;;;0.10;;
70829;SDS011;58451;51.550;7.208;2023-04-01T03:40:51;1.90;;;0.10;;
70829;SDS011;58451;51.550;7.208;2023-04-01T03:42:23;1.10;;;0.10;;
70829;SDS011;58451;51.550;7.208;2023-04-01T03:43:55;1.10;;;0.20;;
70829;SDS011;58451;51.550;7.208;2023-04-01T03:45:26;0.90;;;0.10;;
70829;SDS011;58451;51.550;7.208;2023-04-01T03:46:59;1.40;;;0.20;;
70829;SDS011;58451;51.550;7.208;2023-04-01T03:48:32;0.70;;;0.20;;
70829;SDS011;58451;51.550;7.208;2023-04-01T03:50:05;0.50;;;0.10;;
70829;SDS011;58451;51.550;7.208;2023-04-01T03:51:39;1.20;;;0.10;;
70829;SDS011;58451;51.550;7.208;2023-04-01T03:53:15;1.50;;;0.10;;
70829;SDS011;58451;51.550;7.208;2023-04-01T03:54:47;1.00;;;0.20;;
70829;SDS011;58451;51.550;7.208;2023-04-01T03:56:19;0.80;;;0.10;;
70829;SDS011;58451;51.550;7.208;2023-04-01T03:57:51;2.50;;;0.30;;
70829;SDS011;58451;51.550;7.208;2023-04-01T03:59:22;0.70;;;0.20;;
70829;SDS011;58451;51.550;7.208;2023-04-01T04:00:54;2.10;;;0.30;;
70829;SDS011;58451;51.550;7.208;2023-04-01T04:02:26;1.30;;;0.20;;
70829;SDS011;58451;51.550;7.208;2023-04-01T04:03:59;2.30;;;0.40;;
70829;SDS011;58451;51.550;7.208;2023-04-01T04:05:32;1.60;;;0.30;;
70829;SDS011;58451;51.550;7.208;2023-04-01T04:07:05;1.10;;;0.30;;
70829;SDS011;58451;51.550;7.208;2023-04-01T04:08:49;1.50;;;0.20;;
70829;SDS011;58451;51.550;7.208;2023-04-01T04:10:21;1.80;;;0.40;;
70829;SDS011;58451;51.550;7.208;2023-04-01T04:11:54;1.90;;;0.20;;
70829;SDS011;58451;51.550;7.208;2023-04-01T04:13:26;2.20;;;0.40;;
70829;SDS011;58451;51.550;7.208;2023-04-01T04:15:04;2.80;;;0.50;;
70829;SDS011;58451;51.550;7.208;2023-04-01T04:16:36;2.80;;;0.30;;
70829;SDS011;58451;51.550;7.208;2023-04-01T04:18:08;2.90;;;0.30;;
70829;SDS011;58451;51.550;7.208;2023-04-01T04:19:40;1.90;;;0.30;;
70829;SDS011;58451;51.550;7.208;2023-04-01T04:21:14;1.50;;;0.20;;
70829;SDS011;58451;51.550;7.208;2023-04-01T04:22:46;1.20;;;0.30;;
70829;SDS011;58451;51.550;7.208;2023-04-01T04:24:18;1.30;;;0.30;;
70829;SDS011;58451;51.550;7.208;2023-04-01T04:26:04;3.10;;;0.50;;
70829;SDS011;58451;51.550;7.208;2023-04-01T04:27:41;2.00;;;0.40;;
70829;SDS011;58451;51.550;7.208;2023-04-01T04:29:15;4.40;;;0.30;;
70829;SDS011;58451;51.550;7.208;2023-04-01T04:30:47;0.80;;;0.30;;
70829;SDS011;58451;51.550;7.208;2023-04-01T04:32:19;2.80;;;0.30;;
70829;SDS011;58451;51.550;7.208;2023-04-01T04:33:51;1.80;;;0.30;;
70829;SDS011;58451;51.550;7.208;2023-04-01T04:35:24;3.10;;;0.30;;
70829;SDS011;58451;51.550;7.208;2023-04-01T04:36:56;1.60;;;0.30;;
70829;SDS011;58451;51.550;7.208;2023-04-01T04:38:29;2.00;;;0.40;;
70829;SDS011;58451;51.550;7.208;2023-04-01T04:40:02;2.10;;;0.30;;
70829;SDS011;58451;51.550;7.208;2023-04-01T04:41:37;1.10;;;0.30;;
70829;SDS011;58451;51.550;7.208;2023-04-01T04:43:11;1.50;;;0.30;;
70829;SDS011;58451;51.550;7.208;2023-04-01T04:44:44;2.40;;;0.40;;
70829;SDS011;58451;51.550;7.208;2023-04-01T04:46:16;2.80;;;0.30;;
70829;SDS011;58451;51.550;7.208;2023-04-01T04:47:50;0.90;;;0.20;;
70829;SDS011;58451;51.550;7.208;2023-04-01T04:49:22;1.70;;;0.40;;
70829;SDS011;58451;51.550;7.208;2023-04-01T04:50:54;1.80;;;0.30;;
70829;SDS011;58451;51.550;7.208;2023-04-01T04:52:27;1.70;;;0.40;;
70829;SDS011;58451;51.550;7.208;2023-04-01T04:54:00;1.40;;;0.40;;
70829;SDS011;58451;51.550;7.208;2023-04-01T04:55:47;1.80;;;0.30;;
70829;SDS011;58451;51.550;7.208;2023-04-01T04:57:38;2.40;;;0.40;;
70829;SDS011;58451;51.550;7.208;2023-04-01T04:59:10;2.10;;;0.30;;
70829;SDS011;58451;51.550;7.208;2023-04-01T05:00:53;2.30;;;0.30;;
70829;SDS011;58451;51.550;7.208;2023-04-01T05:02:32;0.90;;;0.30;;
70829;SDS011;58451;51.550;7.208;2023-04-01T05:04:04;2.10;;;0.30;;
70829;SDS011;58451;51.550;7.208;2023-04-01T05:05:37;0.80;;;0.20;;
70829;SDS011;58451;51.550;7.208;2023-04-01T05:07:10;2.00;;;0.40;;
70829;SDS011;58451;51.550;7.208;2023-04-01T05:08:43;2.80;;;0.40;;
70829;SDS011;58451;51.550;7.208;2023-04-01T05:10:16;2.30;;;0.50;;
70829;SDS011;58451;51.550;7.208;2023-04-01T05:11:48;1.50;;;0.40;;
70829;SDS011;58451;51.550;7.208;2023-04-01T05:13:20;2.80;;;0.40;;
70829;SDS011;58451;51.550;7.208;2023-04-01T05:14:52;2.00;;;0.40;;
70829;SDS011;58451;51.550;7.208;2023-04-01T05:16:24;1.10;;;0.40;;
70829;SDS011;58451;51.550;7.208;2023-04-01T05:17:56;1.70;;;0.50;;
70829;SDS011;58451;51.550;7.208;2023-04-01T05:19:28;1.60;;;0.40;;
70829;SDS011;58451;51.550;7.208;2023-04-01T05:21:00;2.30;;;0.50;;
70829;SDS011;58451;51.550;7.208;2023-04-01T05:22:32;1.20;;;0.30;;
70829;SDS011;58451;51.550;7.208;2023-04-01T05:24:07;1.40;;;0.30;;
70829;SDS011;58451;51.550;7.208;2023-04-01T05:25:41;1.20;;;0.30;;
70829;SDS011;58451;51.550;7.208;2023-04-01T05:27:14;1.70;;;0.50;;
70829;SDS011;58451;51.550;7.208;2023-04-01T05:28:46;1.60;;;0.40;;
70829;SDS011;58451;51.550;7.208;2023-04-01T05:30:19;2.40;;;0.40;;
70829;SDS011;58451;51.550;7.208;2023-04-01T05:32:03;1.60;;;0.40;;
70829;SDS011;58451;51.550;7.208;2023-04-01T05:33:36;2.20;;;0.40;;
70829;SDS011;58451;51.550;7.208;2023-04-01T05:35:09;2.30;;;0.40;;
70829;SDS011;58451;51.550;7.208;2023-04-01T05:36:42;1.30;;;0.40;;
70829;SDS011;58451;51.550;7.208;2023-04-01T05:38:14;1.50;;;0.30;;
70829;SDS011;58451;51.550;7.208;2023-04-01T05:39:46;1.20;;;0.30;;
70829;SDS011;58451;51.550;7.208;2023-04-01T05:41:18;2.10;;;0.40;;
70829;SDS011;58451;51.550;7.208;2023-04-01T05:42:50;2.50;;;0.50;;
70829;SDS011;58451;51.550;7.208;2023-04-01T05:44:22;1.10;;;0.30;;
70829;SDS011;58451;51.550;7.208;2023-04-01T05:46:14;1.50;;;0.40;;
70829;SDS011;58451;51.550;7.208;2023-04-01T05:47:54;1.80;;;0.30;;
70829;SDS011;58451;51.550;7.208;2023-04-01T05:49:26;3.00;;;0.50;;
70829;SDS011;58451;51.550;7.208;2023-04-01T05:50:59;1.60;;;0.40;;
70829;SDS011;58451;51.550;7.208;2023-04-01T05:52:32;1.70;;;0.50;;
70829;SDS011;58451;51.550;7.208;2023-04-01T05:54:05;2.70;;;0.40;;
70829;SDS011;58451;51.550;7.208;2023-04-01T05:55:37;2.20;;;0.50;;
70829;SDS011;58451;51.550;7.208;2023-04-01T05:57:09;4.00;;;0.60;;
70829;SDS011;58451;51.550;7.208;2023-04-01T05:58:41;2.60;;;0.50;;
70829;SDS011;58451;51.550;7.208;2023-04-01T06:00:14;2.80;;;0.40;;
70829;SDS011;58451;51.550;7.208;2023-04-01T06:01:47;1.70;;;0.40;;
70829;SDS011;58451;51.550;7.208;2023-04-01T06:03:19;2.90;;;0.40;;
70829;SDS011;58451;51.550;7.208;2023-04-01T06:05:01;1.80;;;0.40;;
70829;SDS011;58451;51.550;7.208;2023-04-01T06:06:55;1.70;;;0.50;;
70829;SDS011;58451;51.550;7.208;2023-04-01T06:08:28;4.10;;;0.50;;
70829;SDS011;58451;51.550;7.208;2023-04-01T06:10:10;2.10;;;0.40;;
70829;SDS011;58451;51.550;7.208;2023-04-01T06:26:25;4.20;;;0.70;;
70829;SDS011;58451;51.550;7.208;2023-04-01T06:32:15;2.10;;;0.40;;
70829;SDS011;58451;51.550;7.208;2023-04-01T06:38:25;2.60;;;0.40;;
70829;SDS011;58451;51.550;7.208;2023-04-01T06:40:37;2.00;;;0.60;;
70829;SDS011;58451;51.550;7.208;2023-04-01T06:42:55;2.30;;;0.50;;
70829;SDS011;58451;51.550;7.208;2023-04-01T06:45:12;2.70;;;0.40;;
70829;SDS011;58451;51.550;7.208;2023-04-01T06:52:00;2.30;;;0.50;;
70829;SDS011;58451;51.550;7.208;2023-04-01T06:56:11;1.90;;;0.50;;
70829;SDS011;58451;51.550;7.208;2023-04-01T06:58:07;2.60;;;0.50;;
70829;SDS011;58451;51.550;7.208;2023-04-01T06:59:48;2.00;;;0.50;;
70829;SDS011;58451;51.550;7.208;2023-04-01T07:01:24;1.90;;;0.40;;
70829;SDS011;58451;51.550;7.208;2023-04-01T07:03:12;2.90;;;0.60;;
70829;SDS011;58451;51.550;7.208;2023-04-01T07:04:51;2.30;;;0.40;;
70829;SDS011;58451;51.550;7.208;2023-04-01T07:06:40;2.90;;;0.70;;
70829;SDS011;58451;51.550;7.208;2023-04-01T07:08:37;4.90;;;0.90;;
70829;SDS011;58451;51.550;7.208;2023-04-01T07:10:18;2.30;;;0.60;;
70829;SDS011;58451;51.550;7.208;2023-04-01T07:12:36;2.10;;;0.50;;
70829;SDS011;58451;51.550;7.208;2023-04-01T07:14:41;2.50;;;0.60;;
70829;SDS011;58451;51.550;7.208;2023-04-01T07:16:39;2.70;;;0.70;;
70829;SDS011;58451;51.550;7.208;2023-04-01T07:18:58;1.90;;;0.50;;
70829;SDS011;58451;51.550;7.208;2023-04-01T07:20:32;2.40;;;0.60;;
70829;SDS011;58451;51.550;7.208;2023-04-01T07:22:29;4.00;;;0.90;;
70829;SDS011;58451;51.550;7.208;2023-04-01T07:24:37;2.70;;;0.80;;
70829;SDS011;58451;51.550;7.208;2023-04-01T07:26:22;2.70;;;0.80;;
70829;SDS011;58451;51.550;7.208;2023-04-01T07:28:02;2.40;;;0.60;;
70829;SDS011;58451;51.550;7.208;2023-04-01T07:29:39;3.30;;;0.60;;
70829;SDS011;58451;51.550;7.208;2023-04-01T07:34:06;2.40;;;0.60;;
70829;SDS011;58451;51.550;7.208;2023-04-01T07:36:06;1.70;;;0.50;;
70829;SDS011;58451;51.550;7.208;2023-04-01T07:50:08;3.30;;;0.90;;
70829;SDS011;58451;51.550;7.208;2023-04-01T07:54:21;2.10;;;0.60;;
70829;SDS011;58451;51.550;7.208;2023-04-01T07:56:26;2.70;;;1.00;;
70829;SDS011;58451;51.550;7.208;2023-04-01T08:00:54;3.30;;;0.90;;
70829;SDS011;58451;51.550;7.208;2023-04-01T08:03:38;2.30;;;0.70;;
70829;SDS011;58451;51.550;7.208;2023-04-01T08:05:27;3.10;;;1.00;;
70829;SDS011;58451;51.550;7.208;2023-04-01T08:07:23;6.60;;;1.50;;
70829;SDS011;58451;51.550;7.208;2023-04-01T08:17:31;5.00;;;1.50;;
70829;SDS011;58451;51.550;7.208;2023-04-01T08:21:46;3.30;;;1.20;;
70829;SDS011;58451;51.550;7.208;2023-04-01T08:23:27;4.40;;;1.50;;
70829;SDS011;58451;51.550;7.208;2023-04-01T08:25:13;4.20;;;1.60;;
70829;SDS011;58451;51.550;7.208;2023-04-01T08:26:54;3.90;;;1.40;;
70829;SDS011;58451;51.550;7.208;2023-04-01T08:28:58;4.10;;;1.60;;
70829;SDS011;58451;51.550;7.208;2023-04-01T08:30:51;4.00;;;1.50;;
70829;SDS011;58451;51.550;7.208;2023-04-01T08:32:38;4.40;;;1.80;;
70829;SDS011;58451;51.550;7.208;2023-04-01T08:37:50;3.50;;;1.30;;
70829;SDS011;58451;51.550;7.208;2023-04-01T08:39:33;4.70;;;1.80;;
70829;SDS011;58451;51.550;7.208;2023-04-01T08:47:19;4.70;;;2.00;;
70829;SDS011;58451;51.550;7.208;2023-04-01T08:49:51;5.00;;;2.20;;
70829;SDS011;58451;51.550;7.208;2023-04-01T08:55:30;6.40;;;2.30;;
70829;SDS011;58451;51.550;7.208;2023-04-01T09:00:15;4.50;;;1.60;;
70829;SDS011;58451;51.550;7.208;2023-04-01T09:22:34;6.10;;;2.30;;
70829;SDS011;58451;51.550;7.208;2023-04-01T09:24:46;6.50;;;2.50;;
70829;SDS011;58451;51.550;7.208;2023-04-01T09:28:45;6.40;;;2.00;;
70829;SDS011;58451;51.550;7.208;2023-04-01T09:59:40;7.00;;;2.70;;
70829;SDS011;58451;51.550;7.208;2023-04-01T10:10:50;6.30;;;2.70;;
70829;SDS011;58451;51.550;7.208;2023-04-01T10:27:47;6.60;;;2.90;;
70829;SDS011;58451;51.550;7.208;2023-04-01T10:30:13;7.20;;;2.90;;
70829;SDS011;58451;51.550;7.208;2023-04-01T10:32:37;7.70;;;2.80;;
70829;SDS011;58451;51.550;7.208;2023-04-01T11:01:14;7.80;;;2.40;;
70829;SDS011;58451;51.550;7.208;2023-04-01T11:19:24;5.70;;;2.40;;
70829;SDS011;58451;51.550;7.208;2023-04-01T11:24:19;7.70;;;3.10;;
70829;SDS011;58451;51.550;7.208;2023-04-01T11:44:40;9.50;;;4.90;;
70829;SDS011;58451;51.550;7.208;2023-04-01T11:46:23;10.60;;;5.40;;
70829;SDS011;58451;51.550;7.208;2023-04-01T11:48:32;10.60;;;4.70;;
70829;SDS011;58451;51.550;7.208;2023-04-01T11:58:28;8.30;;;3.80;;
70829;SDS011;58451;51.550;7.208;2023-04-01T12:17:48;8.50;;;3.90;;
70829;SDS011;58451;51.550;7.208;2023-04-01T12:23:40;8.00;;;3.30;;
70829;SDS011;58451;51.550;7.208;2023-04-01T12:33:43;8.60;;;3.90;;
70829;SDS011;58451;51.550;7.208;2023-04-01T12:35:51;10.70;;;4.70;;
70829;SDS011;58451;51.550;7.208;2023-04-01T12:56:59;10.00;;;4.40;;
70829;SDS011;58451;51.550;7.208;2023-04-01T13:25:10;6.30;;;2.00;;
70829;SDS011;58451;51.550;7.208;2023-04-01T13:29:18;6.50;;;2.30;;
70829;SDS011;58451;51.550;7.208;2023-04-01T13:35:03;6.60;;;2.00;;
70829;SDS011;58451;51.550;7.208;2023-04-01T13:42:47;7.80;;;2.80;;
70829;SDS011;58451;51.550;7.208;2023-04-01T13:52:27;5.80;;;2.00;;
70829;SDS011;58451;51.550;7.208;2023-04-01T13:56:42;6.00;;;1.70;;
70829;SDS011;58451;51.550;7.208;2023-04-01T14:00:48;5.20;;;1.70;;
70829;SDS011;58451;51.550;7.208;2023-04-01T14:04:25;5.10;;;2.00;;
70829;SDS011;58451;51.550;7.208;2023-04-01T14:08:17;7.10;;;2.60;;
70829;SDS011;58451;51.550;7.208;2023-04-01T14:16:00;8.80;;;3.20;;
70829;SDS011;58451;51.550;7.208;2023-04-01T14:17:54;9.60;;;4.30;;
70829;SDS011;58451;51.550;7.208;2023-04-01T14:19:49;9.40;;;4.10;;
70829;SDS011;58451;51.550;7.208;2023-04-01T14:22:05;12.00;;;4.70;;
70829;SDS011;58451;51.550;7.208;2023-04-01T14:30:52;10.80;;;5.00;;
70829;SDS011;58451;51.550;7.208;2023-04-01T14:39:55;10.30;;;4.70;;
70829;SDS011;58451;51.550;7.208;2023-04-01T14:44:02;10.90;;;4.10;;
70829;SDS011;58451;51.550;7.208;2023-04-01T14:45:46;8.30;;;3.50;;
70829;SDS011;58451;51.550;7.208;2023-04-01T14:49:51;10.10;;;4.00;;
70829;SDS011;58451;51.550;7.208;2023-04-01T14:55:17;7.80;;;3.70;;
70829;SDS011;58451;51.550;7.208;2023-04-01T14:57:10;8.40;;;3.70;;
70829;SDS011;58451;51.550;7.208;2023-04-01T14:59:14;8.70;;;3.70;;
70829;SDS011;58451;51.550;7.208;2023-04-01T15:06:35;9.60;;;3.70;;
70829;SDS011;58451;51.550;7.208;2023-04-01T15:08:17;9.40;;;4.10;;
70829;SDS011;58451;51.550;7.208;2023-04-01T15:12:33;13.00;;;5.10;;
70829;SDS011;58451;51.550;7.208;2023-04-01T15:17:18;10.30;;;4.60;;
70829;SDS011;58451;51.550;7.208;2023-04-01T15:19:34;9.50;;;4.30;;
70829;SDS011;58451;51.550;7.208;2023-04-01T15:25:51;10.30;;;4.40;;
70829;SDS011;58451;51.550;7.208;2023-04-01T15:27:43;10.10;;;4.60;;
70829;SDS011;58451;51.550;7.208;2023-04-01T15:37:16;9.90;;;4.20;;
70829;SDS011;58451;51.550;7.208;2023-04-01T15:43:15;10.10;;;4.70;;
70829;SDS011;58451;51.550;7.208;2023-04-01T15:47:01;10.60;;;4.90;;
70829;SDS011;58451;51.550;7.208;2023-04-01T15:49:04;9.40;;;4.50;;
70829;SDS011;58451;51.550;7.208;2023-04-01T15:55:17;11.60;;;5.60;;
70829;SDS011;58451;51.550;7.208;2023-04-01T16:02:14;12.20;;;5.20;;
70829;SDS011;58451;51.550;7.208;2023-04-01T16:03:59;12.80;;;5.80;;
70829;SDS011;58451;51.550;7.208;2023-04-01T16:12:18;13.00;;;6.60;;
70829;SDS011;58451;51.550;7.208;2023-04-01T16:14:26;13.30;;;6.00;;
70829;SDS011;58451;51.550;7.208;2023-04-01T16:20:51;13.00;;;6.50;;
70829;SDS011;58451;51.550;7.208;2023-04-01T16:23:02;13.80;;;6.60;;
70829;SDS011;58451;51.550;7.208;2023-04-01T16:26:36;12.10;;;6.20;;
70829;SDS011;58451;51.550;7.208;2023-04-01T16:28:23;13.60;;;7.20;;
70829;SDS011;58451;51.550;7.208;2023-04-01T16:30:26;11.50;;;5.60;;
70829;SDS011;58451;51.550;7.208;2023-04-01T16:34:01;14.40;;;6.40;;
70829;SDS011;58451;51.550;7.208;2023-04-01T16:35:49;10.30;;;4.40;;
70829;SDS011;58451;51.550;7.208;2023-04-01T16:39:44;8.70;;;3.40;;
70829;SDS011;58451;51.550;7.208;2023-04-01T16:41:41;8.50;;;3.70;;
70829;SDS011;58451;51.550;7.208;2023-04-01T16:43:25;8.50;;;3.60;;
70829;SDS011;58451;51.550;7.208;2023-04-01T16:46:44;7.50;;;2.90;;
70829;SDS011;58451;51.550;7.208;2023-04-01T16:51:13;9.50;;;4.10;;
70829;SDS011;58451;51.550;7.208;2023-04-01T16:53:48;8.70;;;3.50;;
70829;SDS011;58451;51.550;7.208;2023-04-01T16:55:35;11.00;;;4.50;;
70829;SDS011;58451;51.550;7.208;2023-04-01T16:57:31;10.20;;;4.40;;
70829;SDS011;58451;51.550;7.208;2023-04-01T16:59:52;8.10;;;3.30;;
70829;SDS011;58451;51.550;7.208;2023-04-01T17:01:51;8.90;;;3.30;;
70829;SDS011;58451;51.550;7.208;2023-04-01T17:03:40;9.40;;;4.10;;
70829;SDS011;58451;51.550;7.208;2023-04-01T17:05:16;8.80;;;3.70;;
70829;SDS011;58451;51.550;7.208;2023-04-01T17:19:49;10.80;;;5.10;;
70829;SDS011;58451;51.550;7.208;2023-04-01T17:23:32;10.80;;;4.50;;
70829;SDS011;58451;51.550;7.208;2023-04-01T17:27:14;10.80;;;4.00;;
70829;SDS011;58451;51.550;7.208;2023-04-01T17:31:18;9.50;;;4.20;;
70829;SDS011;58451;51.550;7.208;2023-04-01T17:37:38;10.10;;;4.60;;
70829;SDS011;58451;51.550;7.208;2023-04-01T17:39:46;11.90;;;5.50;;
70829;SDS011;58451;51.550;7.208;2023-04-01T17:49:55;10.50;;;4.10;;
70829;SDS011;58451;51.550;7.208;2023-04-01T17:51:41;9.00;;;3.90;;
70829;SDS011;58451;51.550;7.208;2023-04-01T17:53:47;11.20;;;5.10;;
70829;SDS011;58451;51.550;7.208;2023-04-01T17:55:43;9.20;;;4.40;;
70829;SDS011;58451;51.550;7.208;2023-04-01T17:59:49;12.50;;;4.90;;
70829;SDS011;58451;51.550;7.208;2023-04-01T18:01:40;11.00;;;5.00;;
70829;SDS011;58451;51.550;7.208;2023-04-01T18:06:07;12.10;;;5.20;;
70829;SDS011;58451;51.550;7.208;2023-04-01T18:07:58;12.60;;;5.80;;